createdAt,value
2018-11-03T00:00:14.337Z,35.63
2018-11-03T00:02:44.456Z,35.70
2018-11-03T00:05:13.853Z,33.07
2018-11-03T00:07:43.253Z,34.83
2018-11-03T00:10:12.270Z,36.90
2018-11-03T00:12:41.292Z,34.73
2018-11-03T00:15:11.084Z,33.20
2018-11-03T00:17:40.234Z,32.90
2018-11-03T00:20:09.298Z,33.43
2018-11-03T00:22:38.724Z,33.87
2018-11-03T00:25:08.657Z,35.00
2018-11-03T00:27:37.663Z,35.40
2018-11-03T00:30:08.876Z,35.23
2018-11-03T00:32:37.900Z,37.93
2018-11-03T00:35:07.293Z,39.93
2018-11-03T00:37:36.654Z,38.27
2018-11-03T00:40:07.481Z,38.60
2018-11-03T00:42:36.617Z,39.07
2018-11-03T00:45:06.960Z,39.97
2018-11-03T00:47:36.021Z,39.93
2018-11-03T00:50:05.524Z,39.73
2018-11-03T00:52:34.839Z,39.70
2018-11-03T00:55:03.980Z,40.33
2018-11-03T00:57:33.053Z,40.53
2018-11-03T01:00:02.461Z,41.27
2018-11-03T01:02:31.456Z,39.67
2018-11-03T01:05:00.596Z,39.23
2018-11-03T01:07:29.966Z,40.23
2018-11-03T01:09:59.009Z,40.33
2018-11-03T01:12:28.029Z,39.10
2018-11-03T01:14:57.374Z,39.20
2018-11-03T01:17:26.406Z,38.33
2018-11-03T01:19:55.428Z,39.20
2018-11-03T01:22:24.890Z,37.37
2018-11-03T01:24:53.951Z,38.87
2018-11-03T01:27:22.985Z,38.10
2018-11-03T01:29:52.291Z,36.83
2018-11-03T01:32:21.329Z,36.23
2018-11-03T01:34:50.306Z,36.40
2018-11-03T01:37:19.669Z,36.83
2018-11-03T01:39:48.647Z,35.10
2018-11-03T01:42:17.741Z,33.97
2018-11-03T01:44:47.082Z,32.23
2018-11-03T01:47:16.114Z,31.50
2018-11-03T01:49:45.123Z,30.37
2018-11-03T01:52:14.462Z,29.33
2018-11-03T01:54:43.521Z,29.43
2018-11-03T01:57:12.632Z,28.30
2018-11-03T01:59:41.965Z,27.67
2018-11-03T02:02:10.980Z,27.03
2018-11-03T02:04:39.961Z,26.37
2018-11-03T02:07:09.398Z,28.73
2018-11-03T02:09:38.494Z,30.00
2018-11-03T02:12:07.609Z,27.83
2018-11-03T02:14:37.076Z,27.67
2018-11-03T02:17:06.394Z,27.73
2018-11-03T02:19:35.492Z,27.70
2018-11-03T02:22:04.887Z,27.50
2018-11-03T02:24:33.913Z,27.73
2018-11-03T02:27:03.086Z,29.87
2018-11-03T02:29:32.413Z,32.67
2018-11-03T02:32:01.398Z,32.70
2018-11-03T02:34:30.555Z,33.03
2018-11-03T02:36:59.961Z,35.73
2018-11-03T02:39:28.953Z,35.33
2018-11-03T02:41:57.997Z,35.97
2018-11-03T02:44:27.379Z,34.50
2018-11-03T02:46:56.435Z,34.40
2018-11-03T02:49:25.469Z,34.40
2018-11-03T02:51:55.027Z,35.47
2018-11-03T02:54:24.056Z,34.10
2018-11-03T02:56:53.145Z,36.50
2018-11-03T02:59:22.537Z,33.03
2018-11-03T03:01:51.552Z,33.27
2018-11-03T03:04:20.604Z,33.43
2018-11-03T03:06:50.039Z,32.87
2018-11-03T03:09:19.067Z,30.83
2018-11-03T03:11:48.103Z,30.00
2018-11-03T03:14:17.406Z,30.00
2018-11-03T03:16:46.406Z,29.33
2018-11-03T03:19:15.486Z,28.00
2018-11-03T03:21:44.570Z,26.67
2018-11-03T03:24:13.612Z,26.43
2018-11-03T03:26:42.629Z,27.70
2018-11-03T03:29:12.055Z,27.53
2018-11-03T03:31:41.058Z,26.90
2018-11-03T03:34:10.141Z,28.77
2018-11-03T03:36:39.225Z,28.23
2018-11-03T03:39:09.802Z,27.57
2018-11-03T03:41:39.111Z,27.60
2018-11-03T03:44:08.449Z,28.73
2018-11-03T03:46:37.447Z,29.20
2018-11-03T03:49:06.566Z,29.23
2018-11-03T03:51:35.777Z,29.00
2018-11-03T03:54:05.090Z,28.87
2018-11-03T03:56:34.109Z,28.90
2018-11-03T03:59:04.037Z,28.17
2018-11-03T04:01:33.085Z,27.63
2018-11-03T04:04:02.225Z,28.10
2018-11-03T04:06:31.364Z,29.27
2018-11-03T04:09:00.381Z,29.73
2018-11-03T04:11:29.379Z,29.80
2018-11-03T04:13:58.439Z,29.50
2018-11-03T04:16:27.467Z,28.90
2018-11-03T04:18:56.502Z,28.40
2018-11-03T04:21:30.118Z,30.93
2018-11-03T04:23:59.659Z,31.03
2018-11-03T04:26:29.754Z,31.40
2018-11-03T04:28:59.344Z,29.67
2018-11-03T04:31:28.836Z,31.63
2018-11-03T04:33:58.207Z,29.17
2018-11-03T04:36:27.629Z,28.00
2018-11-03T04:38:56.694Z,28.40
2018-11-03T04:41:25.785Z,27.97
2018-11-03T04:43:55.112Z,27.23
2018-11-03T04:46:24.138Z,28.33
2018-11-03T04:48:58.369Z,28.03
2018-11-03T04:51:27.474Z,27.83
2018-11-03T04:53:56.501Z,29.43
2018-11-03T04:56:25.960Z,29.60
2018-11-03T04:58:55.124Z,29.57
2018-11-03T05:01:24.285Z,30.77
2018-11-03T05:03:53.379Z,31.33
2018-11-03T05:06:22.400Z,32.13
2018-11-03T05:08:51.488Z,29.50
2018-11-03T05:11:20.840Z,30.13
2018-11-03T05:13:50.042Z,32.33
2018-11-03T05:16:19.121Z,35.80
2018-11-03T05:18:48.444Z,30.23
2018-11-03T05:21:17.535Z,30.77
2018-11-03T05:23:46.617Z,33.07
2018-11-03T05:26:15.752Z,34.50
2018-11-03T05:28:44.760Z,33.37
2018-11-03T05:31:13.814Z,29.80
2018-11-03T05:33:43.525Z,29.20
2018-11-03T05:36:12.570Z,26.83
2018-11-03T05:38:41.632Z,26.57
2018-11-03T05:41:10.670Z,26.40
2018-11-03T05:43:39.823Z,26.17
2018-11-03T05:46:08.889Z,26.40
2018-11-03T05:48:38.265Z,26.27
2018-11-03T05:51:07.321Z,27.10
2018-11-03T05:53:36.346Z,26.63
2018-11-03T05:56:05.926Z,26.70
2018-11-03T05:58:34.986Z,27.37
2018-11-03T06:01:04.137Z,28.67
2018-11-03T06:03:33.489Z,26.70
2018-11-03T06:06:02.497Z,26.90
2018-11-03T06:08:31.499Z,26.63
2018-11-03T06:11:00.581Z,27.43
2018-11-03T06:13:29.701Z,28.37
2018-11-03T06:15:58.801Z,28.07
2018-11-03T06:18:28.093Z,32.60
2018-11-03T06:20:57.119Z,32.87
2018-11-03T06:23:26.245Z,35.20
2018-11-03T06:25:55.307Z,36.80
2018-11-03T06:28:24.417Z,38.30
2018-11-03T06:30:53.419Z,38.10
2018-11-03T06:33:22.809Z,38.80
2018-11-03T06:35:51.998Z,39.03
2018-11-03T06:38:21.375Z,39.57
2018-11-03T06:40:50.492Z,37.23
2018-11-03T06:43:19.592Z,38.53
2018-11-03T06:45:48.642Z,40.70
2018-11-03T06:48:18.101Z,40.23
2018-11-03T06:50:47.109Z,38.30
2018-11-03T06:53:16.334Z,39.13
2018-11-03T06:55:45.693Z,38.40
2018-11-03T06:58:14.866Z,37.90
2018-11-03T07:00:44.939Z,37.07
2018-11-03T07:03:14.081Z,39.70
2018-11-03T07:05:43.111Z,36.70
2018-11-03T07:08:12.147Z,36.77
2018-11-03T07:10:41.330Z,35.30
2018-11-03T07:13:10.418Z,33.37
2018-11-03T07:15:39.412Z,33.97
2018-11-03T07:18:08.728Z,34.27
2018-11-03T07:20:37.782Z,31.90
2018-11-03T07:23:06.857Z,30.87
2018-11-03T07:25:36.244Z,32.07
2018-11-03T07:28:05.846Z,33.30
2018-11-03T07:30:34.994Z,32.53
2018-11-03T07:33:04.563Z,32.60
2018-11-03T07:35:33.616Z,32.50
2018-11-03T07:38:02.753Z,34.63
2018-11-03T07:40:32.660Z,33.17
2018-11-03T07:43:01.731Z,30.87
2018-11-03T07:45:30.770Z,32.77
2018-11-03T07:47:59.887Z,31.83
2018-11-03T07:50:28.897Z,32.93
2018-11-03T07:52:57.949Z,29.00
2018-11-03T07:55:27.029Z,28.13
2018-11-03T07:57:56.070Z,26.27
2018-11-03T08:00:25.163Z,26.20
2018-11-03T08:02:54.568Z,25.40
2018-11-03T08:05:23.698Z,25.97
2018-11-03T08:07:52.845Z,24.60
2018-11-03T08:10:22.037Z,24.53
2018-11-03T08:12:51.218Z,25.70
2018-11-03T08:15:20.286Z,25.00
2018-11-03T08:17:49.450Z,25.47
2018-11-03T08:20:18.523Z,26.50
2018-11-03T08:22:47.577Z,26.43
2018-11-03T08:25:16.886Z,26.27
2018-11-03T08:27:45.949Z,26.30
2018-11-03T08:30:15.365Z,26.77
2018-11-03T08:32:44.590Z,28.07
2018-11-03T08:35:14.068Z,28.67
2018-11-03T08:37:43.118Z,27.47
2018-11-03T08:40:13.038Z,28.77
2018-11-03T08:42:42.416Z,27.27
2018-11-03T08:45:12.009Z,28.43
2018-11-03T08:47:41.696Z,27.50
2018-11-03T08:50:12.001Z,27.03
2018-11-03T08:52:41.208Z,27.23
2018-11-03T08:55:11.514Z,27.27
2018-11-03T08:57:40.601Z,28.10
2018-11-03T09:00:11.822Z,27.93
2018-11-03T09:02:41.277Z,29.70
2018-11-03T09:05:11.108Z,28.80
2018-11-03T09:07:40.446Z,28.63
2018-11-03T09:10:12.745Z,28.90
2018-11-03T09:12:41.797Z,27.00
2018-11-03T09:15:12.297Z,28.13
2018-11-03T09:17:42.562Z,32.23
2018-11-03T09:20:12.566Z,30.87
2018-11-03T09:22:41.648Z,31.33
2018-11-03T09:25:13.288Z,32.60
2018-11-03T09:27:43.255Z,31.33
2018-11-03T09:30:18.324Z,30.57
2018-11-03T09:32:47.382Z,29.80
2018-11-03T09:35:17.002Z,30.43
2018-11-03T09:37:46.506Z,31.43
2018-11-03T09:40:16.852Z,29.87
2018-11-03T09:42:46.791Z,29.83
2018-11-03T09:45:16.215Z,30.10
2018-11-03T09:47:45.568Z,31.93
2018-11-03T09:50:15.792Z,30.47
2018-11-03T09:52:46.690Z,30.47
2018-11-03T09:55:17.298Z,30.17
2018-11-03T09:57:46.724Z,29.03
2018-11-03T10:00:17.836Z,28.33
2018-11-03T10:02:46.890Z,30.93
2018-11-03T10:05:16.921Z,32.13
2018-11-03T10:07:45.936Z,31.10
2018-11-03T10:10:16.302Z,28.93
2018-11-03T10:12:45.771Z,30.00
2018-11-03T10:15:16.133Z,29.63
2018-11-03T10:17:45.713Z,29.83
2018-11-03T10:20:14.822Z,29.97
2018-11-03T10:22:43.889Z,30.67
2018-11-03T10:25:16.241Z,30.33
2018-11-03T10:27:45.836Z,30.50
2018-11-03T10:30:15.823Z,30.77
2018-11-03T10:32:45.363Z,37.37
2018-11-03T10:35:14.967Z,33.53
2018-11-03T10:37:44.377Z,32.13
2018-11-03T10:40:15.375Z,30.40
2018-11-03T10:42:44.591Z,29.57
2018-11-03T10:45:14.723Z,28.30
2018-11-03T10:47:44.211Z,28.17
2018-11-03T10:50:15.039Z,26.70
2018-11-03T10:52:44.889Z,27.37
2018-11-03T10:55:15.360Z,27.87
2018-11-03T10:57:44.573Z,27.00
2018-11-03T11:00:20.012Z,27.20
2018-11-03T11:02:54.060Z,26.63
2018-11-03T11:05:28.079Z,25.73
2018-11-03T11:08:02.172Z,23.63
2018-11-03T11:10:36.468Z,23.17
2018-11-03T11:13:15.553Z,22.73
2018-11-03T11:15:44.967Z,24.70
2018-11-03T11:18:14.116Z,24.40
2018-11-03T11:20:43.195Z,23.90
2018-11-03T11:23:12.371Z,21.40
2018-11-03T11:25:41.525Z,22.03
2018-11-03T11:28:10.570Z,21.63
2018-11-03T11:30:42.550Z,20.00
2018-11-03T11:33:13.197Z,20.40
2018-11-03T11:35:42.747Z,20.73
2018-11-03T11:38:12.586Z,19.63
2018-11-03T11:40:42.078Z,19.17
2018-11-03T11:43:12.251Z,21.03
2018-11-03T11:45:41.417Z,21.23
2018-11-03T11:48:11.051Z,20.20
2018-11-03T11:50:40.225Z,22.80
2018-11-03T11:53:09.733Z,22.57
2018-11-03T11:55:38.786Z,21.30
2018-11-03T11:58:07.937Z,20.70
2018-11-03T12:00:37.039Z,21.10
2018-11-03T12:03:06.193Z,20.30
2018-11-03T12:05:35.324Z,21.33
2018-11-03T12:08:04.385Z,19.87
2018-11-03T12:10:33.402Z,19.70
2018-11-03T12:13:02.533Z,18.93
2018-11-03T12:15:31.554Z,20.03
2018-11-03T12:18:00.597Z,19.03
2018-11-03T12:20:29.776Z,19.30
2018-11-03T12:22:58.829Z,21.83
2018-11-03T12:25:27.921Z,21.57
2018-11-03T12:27:57.008Z,20.00
2018-11-03T12:30:26.092Z,20.10
2018-11-03T12:32:55.213Z,20.37
2018-11-03T12:35:24.562Z,19.97
2018-11-03T12:37:53.654Z,18.67
2018-11-03T12:40:22.706Z,19.70
2018-11-03T12:42:52.702Z,18.43
2018-11-03T12:45:21.760Z,20.87
2018-11-03T12:47:50.789Z,18.63
2018-11-03T12:50:19.908Z,13.70
2018-11-03T12:52:48.877Z,15.37
2018-11-03T12:55:17.959Z,15.40
2018-11-03T12:57:47.064Z,16.07
2018-11-03T13:00:16.803Z,16.47
2018-11-03T13:02:46.728Z,14.90
2018-11-03T13:05:16.233Z,14.97
2018-11-03T13:07:46.211Z,14.83
2018-11-03T13:10:15.256Z,14.50
2018-11-03T13:12:44.640Z,15.30
2018-11-03T13:15:14.269Z,14.33
2018-11-03T13:17:43.293Z,14.30
2018-11-03T13:20:13.812Z,13.87
2018-11-03T13:22:43.523Z,14.30
2018-11-03T13:25:12.999Z,14.43
2018-11-03T13:27:42.645Z,13.70
2018-11-03T13:30:13.687Z,13.03
2018-11-03T13:32:42.734Z,14.97
2018-11-03T13:35:13.170Z,14.87
2018-11-03T13:37:42.273Z,14.60
2018-11-03T13:40:12.720Z,14.23
2018-11-03T13:42:42.354Z,14.40
2018-11-03T13:45:11.541Z,13.20
2018-11-03T13:47:40.864Z,13.87
2018-11-03T13:50:13.053Z,13.87
2018-11-03T13:52:43.913Z,14.00
2018-11-03T13:55:12.962Z,13.73
2018-11-03T13:57:43.629Z,12.97
2018-11-03T14:00:14.987Z,11.70
2018-11-03T14:02:44.799Z,11.43
2018-11-03T14:05:13.891Z,11.23
2018-11-03T14:07:42.974Z,11.87
2018-11-03T14:10:15.722Z,12.07
2018-11-03T14:12:45.536Z,11.80
2018-11-03T14:15:15.956Z,11.37
2018-11-03T14:17:45.033Z,10.47
2018-11-03T14:20:15.055Z,10.10
2018-11-03T14:22:44.625Z,11.10
2018-11-03T14:25:14.864Z,10.37
2018-11-03T14:27:44.870Z,10.07
2018-11-03T14:30:14.505Z,9.67
2018-11-03T14:32:43.987Z,8.60
2018-11-03T14:35:13.857Z,9.53
2018-11-03T14:37:42.860Z,9.17
2018-11-03T14:40:13.867Z,11.13
2018-11-03T14:42:43.582Z,11.73
2018-11-03T14:45:13.609Z,13.57
2018-11-03T14:47:42.926Z,12.87
2018-11-03T14:50:12.234Z,12.87
2018-11-03T14:52:42.384Z,13.40
2018-11-03T14:55:12.124Z,13.17
2018-11-03T14:57:41.175Z,13.43
2018-11-03T15:00:11.993Z,13.93
2018-11-03T15:02:41.449Z,14.77
2018-11-03T15:05:11.369Z,14.73
2018-11-03T15:07:40.448Z,14.17
2018-11-03T15:10:11.210Z,14.20
2018-11-03T15:12:41.094Z,14.37
2018-11-03T15:15:11.884Z,13.63
2018-11-03T15:17:41.106Z,14.13
2018-11-03T15:20:11.302Z,14.57
2018-11-03T15:22:40.552Z,14.40
2018-11-03T15:25:10.528Z,14.70
2018-11-03T15:27:39.774Z,14.80
2018-11-03T15:30:10.324Z,15.30
2018-11-03T15:32:39.572Z,17.00
2018-11-03T15:35:09.231Z,16.73
2018-11-03T15:37:38.385Z,15.60
2018-11-03T15:40:10.354Z,16.17
2018-11-03T15:42:39.373Z,15.77
2018-11-03T15:45:11.225Z,15.03
2018-11-03T15:47:40.397Z,16.30
2018-11-03T15:50:09.630Z,15.37
2018-11-03T15:52:39.019Z,15.13
2018-11-03T15:55:08.277Z,14.73
2018-11-03T15:57:37.252Z,14.63
2018-11-03T16:00:09.183Z,14.83
2018-11-03T16:02:38.170Z,13.80
2018-11-03T16:05:07.268Z,14.27
2018-11-03T16:07:36.379Z,14.70
2018-11-03T16:10:06.283Z,19.37
2018-11-03T16:12:35.401Z,34.73
2018-11-03T16:15:04.813Z,59.23
2018-11-03T16:17:33.809Z,62.73
2018-11-03T16:20:02.829Z,48.97
2018-11-03T16:22:31.925Z,43.33
2018-11-03T16:25:00.969Z,37.77
2018-11-03T16:27:30.001Z,35.83
2018-11-03T16:29:59.129Z,31.90
2018-11-03T16:32:28.326Z,31.93
2018-11-03T16:34:57.550Z,29.33
2018-11-03T16:37:26.631Z,29.97
2018-11-03T16:39:55.704Z,27.63
2018-11-03T16:42:24.699Z,25.07
2018-11-03T16:44:53.826Z,25.40
2018-11-03T16:47:22.843Z,23.47
2018-11-03T16:49:51.916Z,20.83
2018-11-03T16:52:22.486Z,20.50
2018-11-03T16:54:51.594Z,19.60
2018-11-03T16:57:20.676Z,20.70
2018-11-03T16:59:49.810Z,18.50
2018-11-03T17:02:18.767Z,16.10
2018-11-03T17:04:47.834Z,16.63
2018-11-03T17:07:16.921Z,18.90
2018-11-03T17:09:46.034Z,17.97
2018-11-03T17:12:15.123Z,18.33
2018-11-03T17:14:44.248Z,20.60
2018-11-03T17:17:13.270Z,20.53
2018-11-03T17:19:42.393Z,21.40
2018-11-03T17:22:11.485Z,22.07
2018-11-03T17:24:40.505Z,21.07
2018-11-03T17:27:09.594Z,21.43
2018-11-03T17:29:38.719Z,19.33
2018-11-03T17:32:07.807Z,20.43
2018-11-03T17:34:36.885Z,22.03
2018-11-03T17:37:06.106Z,21.97
2018-11-03T17:39:35.174Z,18.77
2018-11-03T17:42:04.227Z,17.60
2018-11-03T17:44:33.331Z,16.20
2018-11-03T17:47:02.478Z,15.00
2018-11-03T17:49:31.514Z,17.03
2018-11-03T17:52:00.567Z,18.83
2018-11-03T17:54:29.633Z,17.80
2018-11-03T17:56:58.786Z,19.50
2018-11-03T17:59:28.229Z,18.77
2018-11-03T18:01:57.347Z,19.30
2018-11-03T18:04:26.982Z,20.87
2018-11-03T18:06:56.408Z,19.57
2018-11-03T18:09:25.972Z,18.47
2018-11-03T18:11:55.009Z,17.20
2018-11-03T18:14:24.037Z,17.67
2018-11-03T18:16:53.063Z,17.80
2018-11-03T18:19:22.213Z,18.93
2018-11-03T18:21:51.188Z,17.37
2018-11-03T18:24:20.273Z,19.47
2018-11-03T18:26:49.630Z,19.80
2018-11-03T18:29:18.725Z,18.63
2018-11-03T18:31:47.739Z,19.47
2018-11-03T18:34:16.780Z,18.17
2018-11-03T18:36:45.817Z,27.77
2018-11-03T18:39:14.916Z,22.17
2018-11-03T18:41:44.156Z,21.57
2018-11-03T18:44:13.101Z,22.93
2018-11-03T18:46:42.159Z,22.90
2018-11-03T18:49:11.212Z,24.37
2018-11-03T18:51:40.269Z,25.13
2018-11-03T18:54:09.320Z,24.60
2018-11-03T18:56:38.433Z,23.63
2018-11-03T18:59:07.925Z,23.80
2018-11-03T19:01:36.937Z,25.27
2018-11-03T19:04:06.103Z,27.20
2018-11-03T19:06:35.187Z,28.90
2018-11-03T19:09:05.142Z,28.80
2018-11-03T19:11:34.185Z,27.40
2018-11-03T19:14:03.309Z,29.83
2018-11-03T19:16:33.393Z,28.13
2018-11-03T19:19:02.623Z,30.60
2018-11-03T19:21:31.784Z,34.27
2018-11-03T19:24:00.879Z,35.37
2018-11-03T19:26:30.018Z,34.43
2018-11-03T19:28:59.063Z,31.37
2018-11-03T19:31:28.068Z,29.07
2018-11-03T19:33:57.111Z,26.73
2018-11-03T19:36:26.164Z,26.50
2018-11-03T19:38:55.197Z,25.13
2018-11-03T19:41:24.360Z,23.67
2018-11-03T19:43:53.412Z,23.10
2018-11-03T19:46:22.459Z,24.03
2018-11-03T19:48:52.141Z,24.43
2018-11-03T19:51:21.185Z,25.20
2018-11-03T19:53:50.165Z,23.97
2018-11-03T19:56:19.206Z,25.23
2018-11-03T19:58:48.254Z,24.90
2018-11-03T20:01:17.330Z,27.57
2018-11-03T20:03:46.400Z,29.30
2018-11-03T20:06:15.424Z,29.30
2018-11-03T20:08:44.486Z,27.43
2018-11-03T20:11:13.591Z,28.43
2018-11-03T20:13:42.612Z,26.43
2018-11-03T20:16:11.704Z,27.70
2018-11-03T20:18:40.749Z,27.33
2018-11-03T20:21:09.849Z,25.33
2018-11-03T20:23:38.903Z,25.43
2018-11-03T20:26:08.815Z,23.27
2018-11-03T20:28:37.793Z,24.53
2018-11-03T20:31:06.789Z,22.77
2018-11-03T20:33:35.784Z,22.43
2018-11-03T20:36:05.023Z,21.83
2018-11-03T20:38:34.019Z,22.73
2018-11-03T20:41:03.135Z,21.20
2018-11-03T20:43:32.265Z,21.57
2018-11-03T20:46:01.258Z,22.60
2018-11-03T20:48:30.332Z,23.07
2018-11-03T20:51:12.307Z,24.43
2018-11-03T20:53:41.776Z,28.83
2018-11-03T20:56:10.962Z,29.87
2018-11-03T20:58:40.029Z,30.00
2018-11-03T21:01:09.058Z,27.77
2018-11-03T21:03:38.124Z,27.33
2018-11-03T21:06:07.189Z,27.73
2018-11-03T21:08:36.197Z,27.57
2018-11-03T21:11:05.365Z,28.83
2018-11-03T21:13:34.354Z,26.53
2018-11-03T21:16:03.410Z,27.17
2018-11-03T21:18:32.524Z,29.00
2018-11-03T21:21:01.539Z,28.50
2018-11-03T21:23:30.635Z,27.47
2018-11-03T21:25:59.613Z,26.67
2018-11-03T21:28:28.674Z,26.57
2018-11-03T21:30:57.697Z,25.37
2018-11-03T21:33:26.821Z,25.93
2018-11-03T21:35:55.853Z,25.93
2018-11-03T21:38:24.911Z,25.17
2018-11-03T21:40:53.913Z,25.43
2018-11-03T21:43:22.923Z,24.53
2018-11-03T21:45:51.924Z,24.70
2018-11-03T21:48:20.981Z,24.97
2018-11-03T21:50:49.987Z,25.53
2018-11-03T21:53:18.994Z,24.50
2018-11-03T21:55:48.172Z,24.77
2018-11-03T21:58:17.208Z,25.73
2018-11-03T22:00:46.221Z,25.90
2018-11-03T22:03:15.221Z,24.40
2018-11-03T22:05:44.547Z,20.47
2018-11-03T22:08:13.592Z,20.53
2018-11-03T22:10:42.593Z,19.80
2018-11-03T22:13:11.753Z,18.13
2018-11-03T22:15:40.785Z,17.67
2018-11-03T22:18:09.765Z,16.33
2018-11-03T22:20:39.146Z,16.70
2018-11-03T22:23:08.265Z,17.93
2018-11-03T22:25:37.253Z,17.40
2018-11-03T22:28:06.557Z,14.67
2018-11-03T22:30:35.496Z,13.87
2018-11-03T22:33:04.594Z,13.93
2018-11-03T22:35:33.656Z,15.73
2018-11-03T22:38:02.694Z,16.70
2018-11-03T22:40:31.738Z,15.83
2018-11-03T22:43:00.813Z,14.77
2018-11-03T22:45:29.813Z,14.37
2018-11-03T22:47:58.801Z,14.27
2018-11-03T22:50:28.127Z,13.63
2018-11-03T22:52:57.139Z,13.80
2018-11-03T22:55:26.934Z,15.07
2018-11-03T22:57:56.239Z,17.80
2018-11-03T23:00:25.245Z,16.13
2018-11-03T23:02:54.257Z,16.53
2018-11-03T23:05:23.646Z,17.83
2018-11-03T23:07:52.659Z,18.57
2018-11-03T23:10:21.658Z,18.40
2018-11-03T23:12:50.798Z,18.00
2018-11-03T23:15:19.748Z,17.73
2018-11-03T23:17:48.829Z,18.03
2018-11-03T23:20:17.877Z,18.50
2018-11-03T23:22:46.846Z,16.83
2018-11-03T23:25:15.832Z,16.93
2018-11-03T23:27:44.869Z,16.57
2018-11-03T23:30:13.952Z,17.30
2018-11-03T23:32:43.009Z,16.37
2018-11-03T23:35:13.709Z,17.07
2018-11-03T23:37:43.165Z,16.27
2018-11-03T23:40:12.652Z,16.43
2018-11-03T23:42:41.980Z,17.13
2018-11-03T23:45:11.330Z,16.43
2018-11-03T23:47:40.361Z,16.13
2018-11-03T23:50:11.285Z,15.90
2018-11-03T23:52:44.598Z,16.30
2018-11-03T23:55:13.958Z,14.87
2018-11-03T23:57:42.948Z,16.60
